createdAt,value
2023-04-21T00:00:34.966Z,0.00
2023-04-21T00:01:34.981Z,0.00
2023-04-21T00:02:36.173Z,0.00
2023-04-21T00:03:35.231Z,0.00
2023-04-21T00:04:35.201Z,0.00
2023-04-21T00:05:35.167Z,0.00
2023-04-21T00:06:35.096Z,0.00
2023-04-21T00:07:35.107Z,0.00
2023-04-21T00:08:35.131Z,0.00
2023-04-21T00:09:35.151Z,0.00
2023-04-21T00:10:35.173Z,0.00
2023-04-21T00:11:35.192Z,0.00
2023-04-21T00:12:35.220Z,0.00
2023-04-21T00:13:35.237Z,0.00
2023-04-21T00:14:35.269Z,0.00
2023-04-21T00:15:35.275Z,0.00
2023-04-21T00:16:35.389Z,0.00
2023-04-21T00:17:35.380Z,0.00
2023-04-21T00:18:35.338Z,0.00
2023-04-21T00:19:35.384Z,0.00
2023-04-21T00:20:35.450Z,0.00
2023-04-21T00:21:35.424Z,0.00
2023-04-21T00:22:35.453Z,0.00
2023-04-21T00:23:35.488Z,0.00
2023-04-21T00:24:35.483Z,0.00
2023-04-21T00:25:35.489Z,0.00
2023-04-21T00:26:35.511Z,0.00
2023-04-21T00:27:35.530Z,0.00
2023-04-21T00:28:35.548Z,0.00
2023-04-21T00:29:35.567Z,0.00
2023-04-21T00:30:35.596Z,0.00
2023-04-21T00:31:35.650Z,0.00
2023-04-21T00:32:35.687Z,0.00
2023-04-21T00:33:35.656Z,0.00
2023-04-21T00:34:35.676Z,0.00
2023-04-21T00:35:35.697Z,0.00
2023-04-21T00:36:35.717Z,0.00
2023-04-21T00:37:35.741Z,0.00
2023-04-21T00:38:35.759Z,0.00
2023-04-21T00:39:35.782Z,0.00
2023-04-21T00:40:35.805Z,0.00
2023-04-21T00:41:35.823Z,0.00
2023-04-21T00:42:35.847Z,0.00
2023-04-21T00:43:35.875Z,0.00
2023-04-21T00:44:35.885Z,0.00
2023-04-21T00:45:35.909Z,0.00
2023-04-21T00:46:35.976Z,0.00
2023-04-21T00:47:36.004Z,0.00
2023-04-21T00:48:35.970Z,0.00
2023-04-21T00:49:35.992Z,0.00
2023-04-21T00:50:36.015Z,0.00
2023-04-21T00:51:36.033Z,0.00
2023-04-21T00:52:36.054Z,0.00
2023-04-21T00:53:36.078Z,0.00
2023-04-21T00:54:36.096Z,0.00
2023-04-21T00:55:36.116Z,0.00
2023-04-21T00:56:36.138Z,0.00
2023-04-21T00:57:36.161Z,0.00
2023-04-21T00:58:36.180Z,0.00
2023-04-21T00:59:36.210Z,0.00
2023-04-21T01:00:36.241Z,0.00
2023-04-21T01:01:36.241Z,0.00
2023-04-21T01:02:36.426Z,0.00
2023-04-21T01:03:36.529Z,0.00
2023-04-21T01:04:36.308Z,0.00
2023-04-21T01:05:36.329Z,0.00
2023-04-21T01:06:36.365Z,0.00
2023-04-21T01:07:36.369Z,0.00
2023-04-21T01:08:36.393Z,0.00
2023-04-21T01:09:36.416Z,0.00
2023-04-21T01:10:36.433Z,0.00
2023-04-21T01:11:36.466Z,0.00
2023-04-21T01:12:36.476Z,0.00
2023-04-21T01:13:36.492Z,0.00
2023-04-21T01:14:36.535Z,0.00
2023-04-21T01:15:36.539Z,0.00
2023-04-21T01:16:36.608Z,0.00
2023-04-21T01:17:36.671Z,0.00
2023-04-21T01:18:36.612Z,0.00
2023-04-21T01:19:36.627Z,0.00
2023-04-21T01:20:36.652Z,0.00
2023-04-21T01:21:36.667Z,0.00
2023-04-21T01:22:36.697Z,0.00
2023-04-21T01:23:36.717Z,0.00
2023-04-21T01:24:36.747Z,0.00
2023-04-21T01:25:36.753Z,0.00
2023-04-21T01:26:36.774Z,0.00
2023-04-21T01:27:36.852Z,0.00
2023-04-21T01:28:36.820Z,0.00
2023-04-21T01:29:36.843Z,0.00
2023-04-21T01:30:36.862Z,0.00
2023-04-21T01:31:36.911Z,0.00
2023-04-21T01:32:36.939Z,0.00
2023-04-21T01:33:36.929Z,0.00
2023-04-21T01:34:36.951Z,0.00
2023-04-21T01:35:36.967Z,0.00
2023-04-21T01:36:36.988Z,0.00
2023-04-21T01:37:37.036Z,0.00
2023-04-21T01:38:37.035Z,0.00
2023-04-21T01:39:37.057Z,0.00
2023-04-21T01:40:37.075Z,0.00
2023-04-21T01:41:37.097Z,0.00
2023-04-21T01:42:37.119Z,0.00
2023-04-21T01:43:37.159Z,0.00
2023-04-21T01:44:37.168Z,0.00
2023-04-21T01:45:37.199Z,0.00
2023-04-21T01:46:37.201Z,0.00
2023-04-21T01:47:37.232Z,0.00
2023-04-21T01:48:37.247Z,0.00
2023-04-21T01:49:37.267Z,0.00
2023-04-21T01:50:37.306Z,0.00
2023-04-21T01:51:37.319Z,0.00
2023-04-21T01:52:37.330Z,0.00
2023-04-21T01:53:37.362Z,0.00
2023-04-21T01:54:37.376Z,0.00
2023-04-21T01:55:37.398Z,0.00
2023-04-21T01:56:37.485Z,0.00
2023-04-21T01:57:37.440Z,0.00
2023-04-21T01:58:37.461Z,0.00
2023-04-21T01:59:37.481Z,0.00
2023-04-21T02:00:37.505Z,0.00
2023-04-21T02:01:37.568Z,0.00
2023-04-21T02:02:37.883Z,0.00
2023-04-21T02:03:37.797Z,0.00
2023-04-21T02:04:37.662Z,0.00
2023-04-21T02:05:37.659Z,0.00
2023-04-21T02:06:37.636Z,0.00
2023-04-21T02:07:37.657Z,0.00
2023-04-21T02:08:37.712Z,0.00
2023-04-21T02:09:37.700Z,0.00
2023-04-21T02:10:37.721Z,0.00
2023-04-21T02:11:37.742Z,0.00
2023-04-21T02:12:37.762Z,0.00
2023-04-21T02:13:37.789Z,0.00
2023-04-21T02:14:37.828Z,0.00
2023-04-21T02:15:37.916Z,0.00
2023-04-21T02:16:37.867Z,0.00
2023-04-21T02:17:37.956Z,0.00
2023-04-21T02:18:37.897Z,0.00
2023-04-21T02:19:37.914Z,0.00
2023-04-21T02:20:37.939Z,0.00
2023-04-21T02:21:37.966Z,0.00
2023-04-21T02:22:37.984Z,0.00
2023-04-21T02:23:38.002Z,0.00
2023-04-21T02:24:38.024Z,0.00
2023-04-21T02:25:38.046Z,0.00
2023-04-21T02:26:38.076Z,0.00
2023-04-21T02:27:38.096Z,0.00
2023-04-21T02:28:38.152Z,0.00
2023-04-21T02:29:38.149Z,0.00
2023-04-21T02:30:38.156Z,0.00
2023-04-21T02:31:49.635Z,0.00
2023-04-21T02:32:38.282Z,0.00
2023-04-21T02:33:38.221Z,0.00
2023-04-21T02:34:38.245Z,0.00
2023-04-21T02:35:38.264Z,0.00
2023-04-21T02:36:38.289Z,0.00
2023-04-21T02:37:38.315Z,0.00
2023-04-21T02:38:38.350Z,0.00
2023-04-21T02:39:38.358Z,0.00
2023-04-21T02:40:38.375Z,0.00
2023-04-21T02:41:38.402Z,0.00
2023-04-21T02:42:38.437Z,0.00
2023-04-21T02:43:38.450Z,0.00
2023-04-21T02:44:38.481Z,0.00
2023-04-21T02:45:38.489Z,0.00
2023-04-21T02:46:38.510Z,0.00
2023-04-21T02:47:38.555Z,0.00
2023-04-21T02:48:38.558Z,0.00
2023-04-21T02:49:38.573Z,0.00
2023-04-21T02:50:38.596Z,0.00
2023-04-21T02:51:38.617Z,0.00
2023-04-21T02:52:38.651Z,0.00
2023-04-21T02:53:38.667Z,0.00
2023-04-21T02:54:38.680Z,0.00
2023-04-21T02:55:38.703Z,0.00
2023-04-21T02:56:38.729Z,0.00
2023-04-21T02:57:38.747Z,0.00
2023-04-21T02:58:38.771Z,0.00
2023-04-21T02:59:38.810Z,0.00
2023-04-21T03:00:38.833Z,0.00
2023-04-21T03:01:38.836Z,0.00
2023-04-21T03:02:39.042Z,0.00
2023-04-21T03:03:38.992Z,0.00
2023-04-21T03:04:38.985Z,0.00
2023-04-21T03:05:38.929Z,0.00
2023-04-21T03:06:38.954Z,0.00
2023-04-21T03:07:38.968Z,0.00
2023-04-21T03:08:38.990Z,0.00
2023-04-21T03:09:39.014Z,0.00
2023-04-21T03:10:39.047Z,0.00
2023-04-21T03:11:39.058Z,0.00
2023-04-21T03:12:39.082Z,0.00
2023-04-21T03:13:39.103Z,0.00
2023-04-21T03:14:39.152Z,0.00
2023-04-21T03:15:39.155Z,0.00
2023-04-21T03:16:39.194Z,0.00
2023-04-21T03:17:39.216Z,0.00
2023-04-21T03:18:39.212Z,0.00
2023-04-21T03:19:39.245Z,0.00
2023-04-21T03:20:39.254Z,0.00
2023-04-21T03:21:39.285Z,0.00
2023-04-21T03:22:39.309Z,0.00
2023-04-21T03:23:39.324Z,0.00
2023-04-21T03:24:39.346Z,0.00
2023-04-21T03:25:39.368Z,0.00
2023-04-21T03:26:39.397Z,0.00
2023-04-21T03:27:39.409Z,0.00
2023-04-21T03:28:39.431Z,0.00
2023-04-21T03:29:39.458Z,0.00
2023-04-21T03:30:39.483Z,0.00
2023-04-21T03:31:39.572Z,0.00
2023-04-21T03:32:39.558Z,0.00
2023-04-21T03:33:39.550Z,0.00
2023-04-21T03:34:39.565Z,0.00
2023-04-21T03:35:39.586Z,0.00
2023-04-21T03:36:39.605Z,0.00
2023-04-21T03:37:39.634Z,0.00
2023-04-21T03:38:39.654Z,0.00
2023-04-21T03:39:39.670Z,0.00
2023-04-21T03:40:39.699Z,0.00
2023-04-21T03:41:39.718Z,0.00
2023-04-21T03:42:39.742Z,4.00
2023-04-21T03:43:39.772Z,0.00
2023-04-21T03:44:39.786Z,0.00
2023-04-21T03:45:39.842Z,4.00
2023-04-21T03:46:39.824Z,4.00
2023-04-21T03:47:39.909Z,4.00
2023-04-21T03:48:39.868Z,4.00
2023-04-21T03:49:39.891Z,4.00
2023-04-21T03:50:39.909Z,8.00
2023-04-21T03:51:39.935Z,8.00
2023-04-21T03:52:39.954Z,8.00
2023-04-21T03:53:39.979Z,8.00
2023-04-21T03:54:39.997Z,8.00
2023-04-21T03:55:40.019Z,12.00
2023-04-21T03:56:40.058Z,12.00
2023-04-21T03:57:40.072Z,12.00
2023-04-21T03:58:40.087Z,16.00
2023-04-21T03:59:40.104Z,20.00
2023-04-21T04:00:40.125Z,20.00
2023-04-21T04:01:40.198Z,24.00
2023-04-21T04:02:40.263Z,28.00
2023-04-21T04:03:40.399Z,32.00
2023-04-21T04:04:40.478Z,36.00
2023-04-21T04:05:40.290Z,40.00
2023-04-21T04:06:40.253Z,44.00
2023-04-21T04:07:40.277Z,52.00
2023-04-21T04:08:40.304Z,64.00
2023-04-21T04:09:40.323Z,72.00
2023-04-21T04:10:40.351Z,84.00
2023-04-21T04:11:40.370Z,96.00
2023-04-21T04:12:40.394Z,104.00
2023-04-21T04:13:40.410Z,116.00
2023-04-21T04:14:40.432Z,128.00
2023-04-21T04:15:40.471Z,132.00
2023-04-21T04:16:40.472Z,148.00
2023-04-21T04:17:40.526Z,156.00
2023-04-21T04:18:40.510Z,168.00
2023-04-21T04:19:40.549Z,184.00
2023-04-21T04:20:40.561Z,196.00
2023-04-21T04:21:40.595Z,212.00
2023-04-21T04:22:40.598Z,236.00
2023-04-21T04:23:40.620Z,264.00
2023-04-21T04:24:40.641Z,280.00
2023-04-21T04:25:40.664Z,300.00
2023-04-21T04:26:40.687Z,320.00
2023-04-21T04:27:40.705Z,360.00
2023-04-21T04:28:40.735Z,412.00
2023-04-21T04:29:40.764Z,460.00
2023-04-21T04:30:40.775Z,524.00
2023-04-21T04:31:40.815Z,580.00
2023-04-21T04:32:40.858Z,648.00
2023-04-21T04:33:40.843Z,732.00
2023-04-21T04:34:40.865Z,824.00
2023-04-21T04:35:40.875Z,920.00
2023-04-21T04:36:40.900Z,1004.00
2023-04-21T04:37:40.917Z,1084.00
2023-04-21T04:38:40.944Z,1172.00
2023-04-21T04:39:40.965Z,1280.00
2023-04-21T04:40:40.981Z,1384.00
2023-04-21T04:41:41.004Z,1492.00
2023-04-21T04:42:41.026Z,1596.00
2023-04-21T04:43:41.046Z,1700.00
2023-04-21T04:44:41.070Z,1796.00
2023-04-21T04:45:41.089Z,1904.00
2023-04-21T04:46:41.152Z,2020.00
2023-04-21T04:47:41.149Z,2120.00
2023-04-21T04:48:41.150Z,2228.00
2023-04-21T04:49:41.185Z,2312.00
2023-04-21T04:50:41.201Z,2392.00
2023-04-21T04:51:41.219Z,2456.00
2023-04-21T04:52:41.240Z,2564.00
2023-04-21T04:53:41.277Z,2700.00
2023-04-21T04:54:41.288Z,2856.00
2023-04-21T04:55:41.304Z,2996.00
2023-04-21T04:56:41.326Z,3128.00
2023-04-21T04:57:41.347Z,3236.00
2023-04-21T04:58:41.371Z,3316.00
2023-04-21T04:59:41.388Z,3360.00
2023-04-21T05:00:41.419Z,3420.00
2023-04-21T05:01:41.458Z,3536.00
2023-04-21T05:02:41.600Z,3708.00
2023-04-21T05:03:41.580Z,3932.00
2023-04-21T05:04:41.585Z,4184.00
2023-04-21T05:05:41.525Z,4392.00
2023-04-21T05:06:41.547Z,4520.00
2023-04-21T05:07:41.567Z,4628.00
2023-04-21T05:08:41.637Z,4712.00
2023-04-21T05:09:41.619Z,4784.00
2023-04-21T05:10:41.631Z,4872.00
2023-04-21T05:11:41.660Z,4972.00
2023-04-21T05:12:41.680Z,4980.00
2023-04-21T05:13:41.727Z,4988.00
2023-04-21T05:14:41.736Z,5020.00
2023-04-21T05:15:41.744Z,5000.00
2023-04-21T05:16:41.792Z,5004.00
2023-04-21T05:17:41.821Z,5128.00
2023-04-21T05:18:41.817Z,5120.00
2023-04-21T05:19:41.833Z,4928.00
2023-04-21T05:20:41.860Z,4776.00
2023-04-21T05:21:41.881Z,4720.00
2023-04-21T05:22:41.909Z,4800.00
2023-04-21T05:23:41.924Z,4932.00
2023-04-21T05:24:41.946Z,4936.00
2023-04-21T05:25:41.964Z,4644.00
2023-04-21T05:26:41.992Z,4264.00
2023-04-21T05:27:42.014Z,3880.00
2023-04-21T05:28:42.035Z,3672.00
2023-04-21T05:29:42.089Z,3348.00
2023-04-21T05:30:42.092Z,3144.00
2023-04-21T05:31:42.109Z,3196.00
2023-04-21T05:32:42.159Z,3372.00
2023-04-21T05:33:42.151Z,3628.00
2023-04-21T05:34:42.177Z,3964.00
2023-04-21T05:35:42.200Z,4400.00
2023-04-21T05:36:42.228Z,4928.00
2023-04-21T05:37:42.242Z,5628.00
2023-04-21T05:38:42.257Z,6300.00
2023-04-21T05:39:42.289Z,6772.00
2023-04-21T05:40:42.309Z,7024.00
2023-04-21T05:41:42.341Z,7140.00
2023-04-21T05:42:42.359Z,7188.00
2023-04-21T05:43:42.386Z,7200.00
2023-04-21T05:44:42.399Z,7268.00
2023-04-21T05:45:42.425Z,7060.00
2023-04-21T05:46:42.500Z,6724.00
2023-04-21T05:47:42.524Z,6592.00
2023-04-21T05:48:42.493Z,6688.00
2023-04-21T05:49:42.513Z,6888.00
2023-04-21T05:50:42.547Z,7052.00
2023-04-21T05:51:42.560Z,7212.00
2023-04-21T05:52:42.594Z,7440.00
2023-04-21T05:53:42.611Z,7668.00
2023-04-21T05:54:42.643Z,7792.00
2023-04-21T05:55:42.652Z,7412.00
2023-04-21T05:56:42.674Z,6840.00
2023-04-21T05:57:42.710Z,6712.00
2023-04-21T05:58:42.720Z,7276.00
2023-04-21T05:59:42.740Z,8108.00
2023-04-21T06:00:42.764Z,8908.00
2023-04-21T06:01:42.790Z,9224.00
2023-04-21T06:02:42.862Z,9064.00
2023-04-21T06:03:42.918Z,8652.00
2023-04-21T06:04:43.005Z,8160.00
2023-04-21T06:05:42.984Z,7984.00
2023-04-21T06:06:42.904Z,8248.00
2023-04-21T06:07:42.933Z,8228.00
2023-04-21T06:08:42.955Z,8784.00
2023-04-21T06:09:42.978Z,9916.00
2023-04-21T06:10:42.999Z,10848.00
2023-04-21T06:11:43.022Z,10900.00
2023-04-21T06:12:43.038Z,10692.00
2023-04-21T06:13:43.661Z,9244.00
2023-04-21T06:14:43.095Z,8916.00
2023-04-21T06:15:43.114Z,10328.00
2023-04-21T06:16:43.175Z,10012.00
2023-04-21T06:17:43.188Z,11360.00
2023-04-21T06:18:43.191Z,12204.00
2023-04-21T06:19:43.462Z,13496.00
2023-04-21T06:20:43.233Z,13236.00
2023-04-21T06:21:43.259Z,17792.00
2023-04-21T06:22:43.287Z,9564.00
2023-04-21T06:23:43.311Z,10968.00
2023-04-21T06:24:43.335Z,14244.00
2023-04-21T06:25:43.360Z,18144.00
2023-04-21T06:26:43.382Z,18464.00
2023-04-21T06:27:43.411Z,18400.00
2023-04-21T06:28:43.437Z,19744.00
2023-04-21T06:29:43.458Z,20960.00
2023-04-21T06:30:43.482Z,20160.00
2023-04-21T06:31:43.555Z,21024.00
2023-04-21T06:32:43.553Z,21888.00
2023-04-21T06:33:43.558Z,22016.00
2023-04-21T06:34:43.581Z,20928.00
2023-04-21T06:35:43.617Z,21824.00
2023-04-21T06:36:43.651Z,20416.00
2023-04-21T06:37:43.676Z,19040.00
2023-04-21T06:38:43.687Z,14628.00
2023-04-21T06:39:43.711Z,14964.00
2023-04-21T06:40:43.740Z,21472.00
2023-04-21T06:41:43.765Z,19584.00
2023-04-21T06:42:43.795Z,20800.00
2023-04-21T06:43:43.820Z,21792.00
2023-04-21T06:44:43.853Z,22144.00
2023-04-21T06:45:43.873Z,22304.00
2023-04-21T06:46:43.928Z,22336.00
2023-04-21T06:47:43.989Z,22592.00
2023-04-21T06:48:43.985Z,22944.00
2023-04-21T06:49:43.986Z,23360.00
2023-04-21T06:50:44.020Z,23616.00
2023-04-21T06:51:44.035Z,23872.00
2023-04-21T06:52:44.062Z,20384.00
2023-04-21T06:53:44.101Z,22720.00
2023-04-21T06:54:44.215Z,23904.00
2023-04-21T06:55:44.144Z,19104.00
2023-04-21T06:56:44.169Z,12876.00
2023-04-21T06:57:44.198Z,10296.00
2023-04-21T06:58:44.228Z,9696.00
2023-04-21T06:59:44.252Z,9292.00
2023-04-21T07:00:44.303Z,8700.00
2023-04-21T07:01:44.306Z,8088.00
2023-04-21T07:02:44.389Z,8388.00
2023-04-21T07:03:44.422Z,8196.00
2023-04-21T07:04:44.419Z,7844.00
2023-04-21T07:05:44.417Z,7444.00
2023-04-21T07:06:44.454Z,7496.00
2023-04-21T07:07:44.471Z,7624.00
2023-04-21T07:08:44.499Z,7872.00
2023-04-21T07:09:44.534Z,7980.00
2023-04-21T07:10:44.548Z,8156.00
2023-04-21T07:11:44.577Z,8376.00
2023-04-21T07:12:44.600Z,8812.00
2023-04-21T07:13:44.626Z,9028.00
2023-04-21T07:14:44.650Z,8824.00
2023-04-21T07:15:44.712Z,8596.00
2023-04-21T07:16:44.736Z,8396.00
2023-04-21T07:17:44.742Z,8288.00
2023-04-21T07:18:44.755Z,8296.00
2023-04-21T07:19:44.777Z,8456.00
2023-04-21T07:20:44.807Z,8552.00
2023-04-21T07:21:44.831Z,8756.00
2023-04-21T07:22:44.859Z,9036.00
2023-04-21T07:23:44.883Z,9308.00
2023-04-21T07:24:44.911Z,9460.00
2023-04-21T07:25:44.936Z,9564.00
2023-04-21T07:26:44.956Z,9748.00
2023-04-21T07:27:44.979Z,9772.00
2023-04-21T07:28:45.006Z,9828.00
2023-04-21T07:29:45.038Z,9912.00
2023-04-21T07:30:45.088Z,10008.00
2023-04-21T07:31:45.081Z,9972.00
2023-04-21T07:32:45.165Z,9816.00
2023-04-21T07:33:45.132Z,9692.00
2023-04-21T07:34:45.148Z,9620.00
2023-04-21T07:35:45.179Z,9544.00
2023-04-21T07:36:45.224Z,9552.00
2023-04-21T07:37:45.227Z,9636.00
2023-04-21T07:38:45.260Z,9744.00
2023-04-21T07:39:45.287Z,9880.00
2023-04-21T07:40:45.301Z,10004.00
2023-04-21T07:41:45.346Z,10124.00
2023-04-21T07:42:45.364Z,10168.00
2023-04-21T07:43:45.383Z,10132.00
2023-04-21T07:44:45.404Z,9996.00
2023-04-21T07:45:45.445Z,9760.00
2023-04-21T07:46:45.498Z,9540.00
2023-04-21T07:47:45.549Z,9380.00
2023-04-21T07:48:45.501Z,9236.00
2023-04-21T07:49:45.532Z,9236.00
2023-04-21T07:50:45.574Z,9328.00
2023-04-21T07:51:45.599Z,9472.00
2023-04-21T07:52:45.599Z,9732.00
2023-04-21T07:53:45.635Z,10052.00
2023-04-21T07:54:45.651Z,10284.00
2023-04-21T07:55:45.682Z,10496.00
2023-04-21T07:56:45.702Z,10784.00
2023-04-21T07:57:45.732Z,11100.00
2023-04-21T07:58:45.758Z,11256.00
2023-04-21T07:59:45.786Z,11240.00
2023-04-21T08:00:45.804Z,11280.00
2023-04-21T08:01:45.830Z,11500.00
2023-04-21T08:02:45.922Z,11672.00
2023-04-21T08:03:46.153Z,11820.00
2023-04-21T08:04:45.949Z,11896.00
2023-04-21T08:05:45.978Z,11928.00
2023-04-21T08:06:46.054Z,11944.00
2023-04-21T08:07:45.976Z,11804.00
2023-04-21T08:08:46.030Z,11708.00
2023-04-21T08:09:46.030Z,11660.00
2023-04-21T08:10:46.061Z,11684.00
2023-04-21T08:11:46.085Z,11936.00
2023-04-21T08:12:46.102Z,12216.00
2023-04-21T08:13:46.317Z,12496.00
2023-04-21T08:14:46.158Z,12676.00
2023-04-21T08:15:46.203Z,12676.00
2023-04-21T08:16:46.346Z,12792.00
2023-04-21T08:17:46.287Z,12868.00
2023-04-21T08:18:46.261Z,12800.00
2023-04-21T08:19:46.288Z,12704.00
2023-04-21T08:20:46.308Z,12460.00
2023-04-21T08:21:46.336Z,12376.00
2023-04-21T08:22:48.278Z,12228.00
2023-04-21T08:23:46.397Z,12008.00
2023-04-21T08:24:46.467Z,11708.00
2023-04-21T08:25:46.453Z,11384.00
2023-04-21T08:26:46.465Z,11012.00
2023-04-21T08:27:46.505Z,10604.00
2023-04-21T08:28:46.522Z,10324.00
2023-04-21T08:29:46.548Z,10200.00
2023-04-21T08:30:46.572Z,10516.00
2023-04-21T08:31:46.636Z,10628.00
2023-04-21T08:32:46.747Z,10480.00
2023-04-21T08:33:57.849Z,10396.00
2023-04-21T08:34:46.675Z,10344.00
2023-04-21T08:36:01.359Z,10276.00
2023-04-21T08:36:46.729Z,10272.00
2023-04-21T08:37:46.758Z,10368.00
2023-04-21T08:38:46.779Z,10600.00
2023-04-21T08:39:46.807Z,10764.00
2023-04-21T08:40:46.837Z,11032.00
2023-04-21T08:41:46.861Z,11068.00
2023-04-21T08:42:46.886Z,11180.00
2023-04-21T08:43:46.913Z,10996.00
2023-04-21T08:44:46.960Z,10712.00
2023-04-21T08:45:46.990Z,10220.00
2023-04-21T08:46:46.990Z,9392.00
2023-04-21T08:47:47.047Z,8884.00
2023-04-21T08:48:47.054Z,8648.00
2023-04-21T08:49:47.072Z,8432.00
2023-04-21T08:50:47.116Z,8224.00
2023-04-21T08:51:47.123Z,8028.00
2023-04-21T08:52:47.165Z,8068.00
2023-04-21T08:53:47.189Z,8008.00
2023-04-21T08:54:47.204Z,8132.00
2023-04-21T08:55:53.755Z,8096.00
2023-04-21T08:56:47.279Z,7980.00
2023-04-21T08:57:47.283Z,7996.00
2023-04-21T08:58:47.307Z,8196.00
2023-04-21T08:59:47.335Z,8868.00
2023-04-21T09:00:47.434Z,9324.00
2023-04-21T09:01:47.427Z,9748.00
2023-04-21T09:02:47.575Z,10760.00
2023-04-21T09:03:47.542Z,11404.00
2023-04-21T09:04:47.637Z,11672.00
2023-04-21T09:05:47.691Z,11628.00
2023-04-21T09:06:47.551Z,11428.00
2023-04-21T09:07:47.548Z,11440.00
2023-04-21T09:08:47.572Z,11500.00
2023-04-21T09:09:47.601Z,11544.00
2023-04-21T09:10:47.655Z,11568.00
2023-04-21T09:11:47.668Z,11624.00
2023-04-21T09:12:47.685Z,11528.00
2023-04-21T09:13:47.708Z,11452.00
2023-04-21T09:14:47.744Z,11528.00
2023-04-21T09:15:47.769Z,11756.00
2023-04-21T09:16:47.868Z,11952.00
2023-04-21T09:17:47.849Z,12164.00
2023-04-21T09:18:47.860Z,12184.00
2023-04-21T09:19:47.867Z,12188.00
2023-04-21T09:20:47.897Z,12180.00
2023-04-21T09:21:47.922Z,12092.00
2023-04-21T09:22:47.953Z,12036.00
2023-04-21T09:23:47.975Z,11824.00
2023-04-21T09:24:48.035Z,11528.00
2023-04-21T09:25:48.029Z,11488.00
2023-04-21T09:26:48.057Z,11584.00
2023-04-21T09:27:48.099Z,11792.00
2023-04-21T09:28:48.114Z,12096.00
2023-04-21T09:29:48.140Z,12504.00
2023-04-21T09:30:48.188Z,12856.00
2023-04-21T09:31:48.188Z,13152.00
2023-04-21T09:32:48.268Z,13648.00
2023-04-21T09:33:57.844Z,13812.00
2023-04-21T09:34:48.272Z,14076.00
2023-04-21T09:35:48.304Z,14468.00
2023-04-21T09:36:48.316Z,14464.00
2023-04-21T09:37:48.350Z,14304.00
2023-04-21T09:38:48.380Z,14380.00
2023-04-21T09:39:57.321Z,14316.00
2023-04-21T09:40:48.432Z,13496.00
2023-04-21T09:41:48.464Z,12868.00
2023-04-21T09:42:48.486Z,12216.00
2023-04-21T09:43:48.518Z,11904.00
2023-04-21T09:44:53.805Z,11308.00
2023-04-21T09:45:48.590Z,10752.00
2023-04-21T09:46:48.682Z,10420.00
2023-04-21T09:47:48.636Z,9808.00
2023-04-21T09:48:48.673Z,9160.00
2023-04-21T09:49:48.677Z,8652.00
2023-04-21T09:52:48.772Z,9028.00
2023-04-21T09:53:49.502Z,8748.00
2023-04-21T09:54:48.818Z,8616.00
2023-04-21T09:55:48.845Z,8908.00
2023-04-21T09:56:48.867Z,8956.00
2023-04-21T09:57:48.892Z,8736.00
2023-04-21T09:58:48.922Z,8828.00
2023-04-21T09:59:48.946Z,8824.00
2023-04-21T10:00:48.980Z,9044.00
2023-04-21T10:01:49.046Z,8604.00
2023-04-21T10:02:49.170Z,8040.00
2023-04-21T10:03:49.201Z,8276.00
2023-04-21T10:04:49.326Z,8084.00
2023-04-21T10:05:49.131Z,8036.00
2023-04-21T10:06:49.135Z,7748.00
2023-04-21T10:07:49.160Z,6892.00
2023-04-21T10:08:49.188Z,6328.00
2023-04-21T10:09:49.268Z,5860.00
2023-04-21T10:10:49.259Z,5448.00
2023-04-21T10:11:49.268Z,6148.00
2023-04-21T10:12:49.296Z,7628.00
2023-04-21T10:13:49.325Z,7460.00
2023-04-21T10:14:49.349Z,7112.00
2023-04-21T10:15:49.410Z,6820.00
2023-04-21T10:16:49.405Z,7400.00
2023-04-21T10:17:49.458Z,9328.00
2023-04-21T10:18:49.459Z,11784.00
2023-04-21T10:19:49.482Z,12508.00
2023-04-21T10:20:49.512Z,13696.00
2023-04-21T10:21:49.855Z,14112.00
2023-04-21T10:22:49.566Z,13608.00
2023-04-21T10:23:49.588Z,12484.00
2023-04-21T10:24:49.621Z,13180.00
2023-04-21T10:25:49.651Z,12504.00
2023-04-21T10:26:49.673Z,10884.00
2023-04-21T10:27:49.701Z,10060.00
2023-04-21T10:28:49.729Z,10580.00
2023-04-21T10:29:56.632Z,10716.00
2023-04-21T10:30:49.786Z,12100.00
2023-04-21T10:31:49.864Z,13976.00
2023-04-21T10:32:49.871Z,13472.00
2023-04-21T10:33:49.878Z,12956.00
2023-04-21T10:34:49.896Z,12712.00
2023-04-21T10:35:49.923Z,12812.00
2023-04-21T10:36:49.961Z,12160.00
2023-04-21T10:37:49.989Z,12132.00
2023-04-21T10:38:50.007Z,13004.00
2023-04-21T10:39:50.046Z,11856.00
2023-04-21T10:40:50.077Z,11972.00
2023-04-21T10:41:50.107Z,13356.00
2023-04-21T10:42:50.140Z,12572.00
2023-04-21T10:43:50.209Z,12388.00
2023-04-21T10:44:50.190Z,12376.00
2023-04-21T10:45:50.206Z,9436.00
2023-04-21T10:46:50.269Z,8616.00
2023-04-21T10:47:50.306Z,7688.00
2023-04-21T10:48:50.327Z,6696.00
2023-04-21T10:49:50.324Z,6132.00
2023-04-21T10:50:50.357Z,5516.00
2023-04-21T10:51:50.381Z,4996.00
2023-04-21T10:52:50.411Z,4864.00
2023-04-21T10:53:50.446Z,4900.00
2023-04-21T10:54:50.476Z,5012.00
2023-04-21T10:55:50.500Z,5440.00
2023-04-21T10:56:50.527Z,5096.00
2023-04-21T10:57:50.550Z,5136.00
2023-04-21T10:58:50.603Z,5124.00
2023-04-21T10:59:50.621Z,5416.00
2023-04-21T11:00:50.673Z,6264.00
2023-04-21T11:01:50.663Z,7348.00
2023-04-21T11:02:50.796Z,7484.00
2023-04-21T11:03:50.836Z,6836.00
2023-04-21T11:04:51.183Z,6604.00
2023-04-21T11:05:50.774Z,6236.00
2023-04-21T11:06:50.801Z,6552.00
2023-04-21T11:07:50.834Z,6556.00
2023-04-21T11:08:50.863Z,6052.00
2023-04-21T11:09:50.893Z,6564.00
2023-04-21T11:10:50.911Z,7240.00
2023-04-21T11:11:50.940Z,7124.00
2023-04-21T11:12:50.973Z,6676.00
2023-04-21T11:13:50.996Z,6288.00
2023-04-21T11:14:51.023Z,6148.00
2023-04-21T11:15:51.060Z,5472.00
2023-04-21T11:16:51.108Z,5032.00
2023-04-21T11:17:51.136Z,5244.00
2023-04-21T11:18:51.134Z,5692.00
2023-04-21T11:19:53.875Z,6072.00
2023-04-21T11:20:51.190Z,6668.00
2023-04-21T11:21:51.215Z,7132.00
2023-04-21T11:22:51.244Z,7308.00
2023-04-21T11:23:51.269Z,8352.00
2023-04-21T11:24:51.305Z,9020.00
2023-04-21T11:25:51.337Z,9064.00
2023-04-21T11:26:51.357Z,8856.00
2023-04-21T11:27:51.382Z,8800.00
2023-04-21T11:28:51.435Z,9272.00
2023-04-21T11:29:51.439Z,9776.00
2023-04-21T11:30:51.508Z,9280.00
2023-04-21T11:31:51.507Z,8164.00
2023-04-21T11:32:51.604Z,7672.00
2023-04-21T11:33:51.572Z,8152.00
2023-04-21T11:35:51.609Z,7812.00
2023-04-21T11:36:51.641Z,7268.00
2023-04-21T11:37:51.670Z,6948.00
2023-04-21T11:38:51.698Z,7264.00
2023-04-21T11:39:51.724Z,8020.00
2023-04-21T11:40:51.780Z,8316.00
2023-04-21T11:41:51.780Z,8704.00
2023-04-21T11:42:51.810Z,8376.00
2023-04-21T11:43:51.834Z,8008.00
2023-04-21T11:44:51.866Z,8344.00
2023-04-21T11:45:51.909Z,9880.00
2023-04-21T11:46:51.923Z,10892.00
2023-04-21T11:47:52.068Z,10568.00
2023-04-21T11:48:51.977Z,10160.00
2023-04-21T11:49:52.007Z,8748.00
2023-04-21T11:50:52.035Z,8440.00
2023-04-21T11:51:52.075Z,9184.00
2023-04-21T11:52:52.093Z,9804.00
2023-04-21T11:53:52.122Z,10120.00
2023-04-21T11:54:52.150Z,10556.00
2023-04-21T11:55:52.175Z,11372.00
2023-04-21T11:56:52.207Z,11956.00
2023-04-21T11:57:52.253Z,12464.00
2023-04-21T11:58:52.281Z,12064.00
2023-04-21T11:59:52.289Z,12272.00
2023-04-21T12:00:52.318Z,12572.00
2023-04-21T12:01:52.346Z,12252.00
2023-04-21T12:02:52.575Z,12220.00
2023-04-21T12:03:52.715Z,12788.00
2023-04-21T12:04:52.595Z,13468.00
2023-04-21T12:05:52.540Z,13100.00
2023-04-21T12:06:52.486Z,12568.00
2023-04-21T12:07:52.512Z,12160.00
2023-04-21T12:08:52.556Z,10948.00
2023-04-21T12:09:52.580Z,10420.00
2023-04-21T12:10:52.650Z,9316.00
2023-04-21T12:11:52.643Z,7944.00
2023-04-21T12:12:52.661Z,8756.00
2023-04-21T12:13:52.701Z,11044.00
2023-04-21T12:14:52.718Z,11468.00
2023-04-21T12:15:52.819Z,10836.00
2023-04-21T12:16:52.810Z,10124.00
2023-04-21T12:17:52.931Z,10600.00
2023-04-21T12:18:52.833Z,11340.00
2023-04-21T12:19:52.859Z,11288.00
2023-04-21T12:20:52.913Z,11064.00
2023-04-21T12:21:52.919Z,11260.00
2023-04-21T12:22:52.950Z,10168.00
2023-04-21T12:23:52.979Z,9032.00
2023-04-21T12:24:53.007Z,8044.00
2023-04-21T12:25:53.048Z,7696.00